createdAt,value
2023-02-20T06:00:31.999Z,1.98
2023-02-20T06:05:35.660Z,1.85
2023-02-20T06:10:39.332Z,1.65
2023-02-20T06:15:44.294Z,1.77
2023-02-20T06:20:47.887Z,1.70
2023-02-20T06:25:51.615Z,1.70
2023-02-20T06:30:57.155Z,1.58
2023-02-20T06:36:01.122Z,1.35
2023-02-20T06:41:04.926Z,1.15
2023-02-20T06:46:09.990Z,1.37
2023-02-20T06:51:14.147Z,1.35
2023-02-20T06:56:20.259Z,1.65
2023-02-20T07:01:28.560Z,1.40
2023-02-20T07:06:32.303Z,1.37
2023-02-20T07:11:36.010Z,1.58
2023-02-20T07:16:40.998Z,1.35
2023-02-20T07:21:44.684Z,1.30
2023-02-20T07:26:49.161Z,1.37
2023-02-20T07:31:54.211Z,1.52
2023-02-20T07:36:57.944Z,1.25
2023-02-20T07:42:01.544Z,1.27
2023-02-20T07:47:09.973Z,1.58
2023-02-20T07:52:13.702Z,1.40
2023-02-20T07:57:17.415Z,1.48
2023-02-20T08:02:22.435Z,1.23
2023-02-20T08:07:26.115Z,1.02
2023-02-20T08:12:29.779Z,0.85
2023-02-20T08:17:45.876Z,1.65
2023-02-20T08:22:51.873Z,0.80
2023-02-20T08:27:55.485Z,1.40
2023-02-20T08:33:02.445Z,0.93
2023-02-20T08:38:08.206Z,0.88
2023-02-20T08:43:12.037Z,1.10
2023-02-20T08:48:17.195Z,0.85
2023-02-20T08:53:21.478Z,1.15
2023-02-20T09:03:30.525Z,0.70
2023-02-20T09:08:34.198Z,1.23
2023-02-20T09:13:43.286Z,1.15
2023-02-20T09:18:48.606Z,0.85
2023-02-20T09:23:52.276Z,0.93
2023-02-20T09:28:55.883Z,1.17
2023-02-20T09:34:01.328Z,0.80
2023-02-20T09:39:05.225Z,0.80
2023-02-20T09:44:15.310Z,0.90
2023-02-20T09:49:25.133Z,1.23
2023-02-20T09:54:31.438Z,0.80
2023-02-20T09:59:39.736Z,0.98
2023-02-20T10:05:00.477Z,0.85
2023-02-20T10:10:20.218Z,1.17
2023-02-20T10:15:27.777Z,0.95
2023-02-20T10:20:42.129Z,0.73
2023-02-20T10:25:51.015Z,0.75
2023-02-20T10:31:01.455Z,1.10
2023-02-20T10:36:12.895Z,0.82
2023-02-20T10:41:22.058Z,0.90
2023-02-20T10:46:46.802Z,1.35
2023-02-20T10:51:58.089Z,2.35
2023-02-20T10:57:08.136Z,0.95
2023-02-20T11:02:18.015Z,1.37
2023-02-20T11:07:23.906Z,1.20
2023-02-20T11:12:32.555Z,1.12
2023-02-20T11:17:38.538Z,1.10
2023-02-20T11:22:47.090Z,1.20
2023-02-20T11:27:56.128Z,0.98
2023-02-20T11:33:06.483Z,1.40
2023-02-20T11:38:29.132Z,1.73
2023-02-20T11:43:34.792Z,1.75
2023-02-20T11:48:40.731Z,1.55
2023-02-20T11:53:45.861Z,0.90
2023-02-20T11:58:49.505Z,1.08
2023-02-20T12:03:57.032Z,1.20
2023-02-20T12:09:03.352Z,0.95
2023-02-20T12:14:12.597Z,1.42
2023-02-20T12:19:21.216Z,1.25
2023-02-20T12:25:03.010Z,1.08
2023-02-20T12:30:20.647Z,1.10
2023-02-20T12:35:32.536Z,1.20
2023-02-20T12:40:51.197Z,1.62
2023-02-20T12:46:05.543Z,1.30
2023-02-20T12:51:24.746Z,1.35
2023-02-20T12:56:54.716Z,1.70
2023-02-20T13:02:05.864Z,1.10
2023-02-20T13:07:18.651Z,1.20
2023-02-20T13:12:25.026Z,1.27
2023-02-20T13:17:39.398Z,1.15
2023-02-20T13:22:43.151Z,1.05
2023-02-20T13:28:00.546Z,2.20
2023-02-20T13:33:23.877Z,1.50
2023-02-20T13:38:29.064Z,1.25
2023-02-20T13:43:34.971Z,1.73
2023-02-20T13:48:42.155Z,2.17
2023-02-20T13:53:49.231Z,2.00
2023-02-20T13:58:58.556Z,1.73
2023-02-20T14:04:03.364Z,1.40
2023-02-20T14:09:12.485Z,1.60
2023-02-20T14:14:28.297Z,1.55
2023-02-20T14:19:32.237Z,1.65
2023-02-20T14:24:35.933Z,1.50
2023-02-20T14:29:41.048Z,1.10
2023-02-20T14:34:49.908Z,2.22
2023-02-20T14:40:02.873Z,2.33
2023-02-20T14:45:14.819Z,1.67
2023-02-20T14:50:21.225Z,1.23
2023-02-20T14:55:27.197Z,2.10
2023-02-20T15:00:37.617Z,1.65
2023-02-20T15:05:44.776Z,1.87
2023-02-20T15:10:50.485Z,1.50
2023-02-20T15:16:07.190Z,1.67
2023-02-20T15:21:13.027Z,1.95
2023-02-20T15:26:31.552Z,1.55
2023-02-20T15:31:36.861Z,1.70
2023-02-20T15:36:41.358Z,1.80
2023-02-20T15:41:45.517Z,1.62
2023-02-20T15:46:50.646Z,1.77
2023-02-20T15:51:58.929Z,1.52
2023-02-20T15:57:14.305Z,1.98
2023-02-20T16:02:23.204Z,2.08
2023-02-20T16:07:27.087Z,1.95
2023-02-20T16:12:33.455Z,1.23
2023-02-20T16:17:38.493Z,1.30
2023-02-20T16:22:42.203Z,1.83
2023-02-20T16:27:47.702Z,3.50
2023-02-20T16:32:54.076Z,2.17
2023-02-20T16:37:57.853Z,1.75
2023-02-20T16:43:01.665Z,2.13
2023-02-20T16:48:14.401Z,1.65
2023-02-20T16:53:18.104Z,1.77
2023-02-20T16:58:21.861Z,2.10
2023-02-20T17:03:27.894Z,2.43
2023-02-20T17:08:31.757Z,2.40
2023-02-20T17:13:35.461Z,1.83
2023-02-20T17:18:40.502Z,1.60
2023-02-20T17:23:44.153Z,1.62
2023-02-20T17:28:47.998Z,1.80
2023-02-20T17:33:53.044Z,1.62
2023-02-20T17:38:56.723Z,1.92
2023-02-20T17:44:00.425Z,2.23
2023-02-20T17:49:05.490Z,1.40
2023-02-20T17:54:09.398Z,1.83
2023-02-20T17:59:13.398Z,1.65
2023-02-20T18:04:21.228Z,1.77
2023-02-20T18:09:25.156Z,1.98
2023-02-20T18:14:30.259Z,1.95
2023-02-20T18:19:35.690Z,1.62
2023-02-20T18:24:39.719Z,1.83
2023-02-20T18:29:43.359Z,1.73
2023-02-20T18:34:48.588Z,1.43
2023-02-20T18:39:52.247Z,1.83
2023-02-20T18:44:56.161Z,2.40
2023-02-20T18:50:01.217Z,1.67
2023-02-20T18:55:05.136Z,1.67
2023-02-20T19:00:09.986Z,1.98
2023-02-20T19:05:15.583Z,2.03
2023-02-20T19:10:21.460Z,1.37
2023-02-20T19:15:25.487Z,1.37
2023-02-20T19:20:31.693Z,1.85
2023-02-20T19:25:35.372Z,1.37
2023-02-20T19:30:39.140Z,1.33
2023-02-20T19:35:44.252Z,1.25
2023-02-20T19:40:48.104Z,1.67
2023-02-20T19:45:51.940Z,1.67
2023-02-20T19:50:57.368Z,1.90
2023-02-20T19:56:01.135Z,1.65
2023-02-20T20:01:04.990Z,1.95
2023-02-20T20:06:11.189Z,1.85
2023-02-20T20:11:14.955Z,2.05
2023-02-20T20:16:18.580Z,1.60
2023-02-20T20:21:23.745Z,1.25
2023-02-20T20:26:28.225Z,1.52
2023-02-20T20:31:36.821Z,1.30
2023-02-20T20:36:42.162Z,2.03
2023-02-20T20:41:46.049Z,2.70
2023-02-20T20:46:49.726Z,3.45
2023-02-20T20:51:54.836Z,3.00
2023-02-20T20:56:58.892Z,3.17
2023-02-20T21:02:02.644Z,3.20
2023-02-20T21:07:07.808Z,2.85
2023-02-20T21:12:12.953Z,2.72
2023-02-20T21:17:16.729Z,2.67
2023-02-20T21:22:22.338Z,2.75
2023-02-20T21:27:26.291Z,2.95
2023-02-20T21:32:30.257Z,2.37
2023-02-20T21:37:35.471Z,2.62
2023-02-20T21:42:56.626Z,2.97
2023-02-20T21:48:00.311Z,2.78
2023-02-20T21:53:05.721Z,3.37
2023-02-20T21:58:14.355Z,3.20
2023-02-20T22:03:16.850Z,2.90
2023-02-20T22:08:39.255Z,2.85
2023-02-20T22:14:00.646Z,3.33
2023-02-20T22:19:21.650Z,3.12
2023-02-20T22:24:44.281Z,2.45
2023-02-20T22:30:05.618Z,3.28
2023-02-20T22:35:26.990Z,2.85
2023-02-20T22:40:49.701Z,3.10
2023-02-20T22:46:10.979Z,2.65
2023-02-20T22:51:33.971Z,2.87
2023-02-20T22:56:56.634Z,2.35
2023-02-20T23:02:18.075Z,2.53
2023-02-20T23:07:39.268Z,2.87
2023-02-20T23:13:01.903Z,2.95
2023-02-20T23:18:23.635Z,2.70
2023-02-20T23:23:44.831Z,2.67
2023-02-20T23:29:07.249Z,2.30
